sensor_id;sensor_type;location;lat;lon;timestamp;P1;durP1;ratioP1;P2;durP2;ratioP2
83022;SDS011;72838;51.820;4.260;2023-11-18T00:00:06;61.28;;;20.23;;
83022;SDS011;72838;51.820;4.260;2023-11-18T00:02:37;74.65;;;22.98;;
83022;SDS011;72838;51.820;4.260;2023-11-18T00:05:17;67.72;;;22.83;;
83022;SDS011;72838;51.820;4.260;2023-11-18T00:07:55;62.97;;;22.58;;
83022;SDS011;72838;51.820;4.260;2023-11-18T00:10:20;67.82;;;22.85;;
83022;SDS011;72838;51.820;4.260;2023-11-18T00:12:46;83.57;;;26.48;;
83022;SDS011;72838;51.820;4.260;2023-11-18T00:15:11;85.07;;;25.05;;
83022;SDS011;72838;51.820;4.260;2023-11-18T00:17:40;81.80;;;24.48;;
83022;SDS011;72838;51.820;4.260;2023-11-18T00:20:05;79.80;;;25.25;;
83022;SDS011;72838;51.820;4.260;2023-11-18T00:22:38;62.05;;;23.00;;
83022;SDS011;72838;51.820;4.260;2023-11-18T00:25:04;73.10;;;24.23;;
83022;SDS011;72838;51.820;4.260;2023-11-18T00:27:32;62.13;;;21.85;;
83022;SDS011;72838;51.820;4.260;2023-11-18T00:30:00;73.13;;;23.95;;
83022;SDS011;72838;51.820;4.260;2023-11-18T00:32:26;62.30;;;22.10;;
83022;SDS011;72838;51.820;4.260;2023-11-18T00:34:54;63.97;;;22.83;;
83022;SDS011;72838;51.820;4.260;2023-11-18T00:37:20;67.60;;;23.85;;
83022;SDS011;72838;51.820;4.260;2023-11-18T00:39:45;71.57;;;22.02;;
83022;SDS011;72838;51.820;4.260;2023-11-18T00:42:11;73.85;;;26.05;;
83022;SDS011;72838;51.820;4.260;2023-11-18T00:44:39;73.97;;;26.45;;
83022;SDS011;72838;51.820;4.260;2023-11-18T00:47:05;68.60;;;26.75;;
83022;SDS011;72838;51.820;4.260;2023-11-18T00:49:42;88.53;;;29.23;;
83022;SDS011;72838;51.820;4.260;2023-11-18T00:52:08;78.32;;;29.33;;
83022;SDS011;72838;51.820;4.260;2023-11-18T00:54:34;83.55;;;29.98;;
83022;SDS011;72838;51.820;4.260;2023-11-18T00:57:00;85.03;;;30.05;;
83022;SDS011;72838;51.820;4.260;2023-11-18T00:59:25;87.72;;;31.35;;
83022;SDS011;72838;51.820;4.260;2023-11-18T01:01:57;90.85;;;34.63;;
83022;SDS011;72838;51.820;4.260;2023-11-18T01:04:24;89.63;;;32.10;;
83022;SDS011;72838;51.820;4.260;2023-11-18T01:06:50;83.97;;;30.80;;
83022;SDS011;72838;51.820;4.260;2023-11-18T01:09:16;89.72;;;30.80;;
83022;SDS011;72838;51.820;4.260;2023-11-18T01:11:42;83.95;;;31.95;;
83022;SDS011;72838;51.820;4.260;2023-11-18T01:14:07;85.68;;;33.03;;
83022;SDS011;72838;51.820;4.260;2023-11-18T01:16:33;88.88;;;31.10;;
83022;SDS011;72838;51.820;4.260;2023-11-18T01:18:59;84.88;;;33.72;;
83022;SDS011;72838;51.820;4.260;2023-11-18T01:21:27;88.30;;;33.30;;
83022;SDS011;72838;51.820;4.260;2023-11-18T01:23:52;85.05;;;33.00;;
83022;SDS011;72838;51.820;4.260;2023-11-18T01:26:18;88.07;;;33.40;;
83022;SDS011;72838;51.820;4.260;2023-11-18T01:28:43;94.28;;;33.33;;
83022;SDS011;72838;51.820;4.260;2023-11-18T01:31:10;84.35;;;32.00;;
83022;SDS011;72838;51.820;4.260;2023-11-18T01:33:36;96.70;;;32.05;;
83022;SDS011;72838;51.820;4.260;2023-11-18T01:36:10;87.28;;;32.38;;
83022;SDS011;72838;51.820;4.260;2023-11-18T01:38:37;93.40;;;32.33;;
83022;SDS011;72838;51.820;4.260;2023-11-18T01:41:06;89.95;;;31.38;;
83022;SDS011;72838;51.820;4.260;2023-11-18T01:43:33;96.70;;;32.40;;
83022;SDS011;72838;51.820;4.260;2023-11-18T01:46:07;91.03;;;30.77;;
83022;SDS011;72838;51.820;4.260;2023-11-18T01:48:41;92.88;;;31.50;;
83022;SDS011;72838;51.820;4.260;2023-11-18T01:51:16;92.93;;;31.00;;
83022;SDS011;72838;51.820;4.260;2023-11-18T01:53:46;90.47;;;29.23;;
83022;SDS011;72838;51.820;4.260;2023-11-18T01:59:58;71.82;;;26.75;;
83022;SDS011;72838;51.820;4.260;2023-11-18T02:02:30;73.63;;;26.27;;
83022;SDS011;72838;51.820;4.260;2023-11-18T02:04:55;68.88;;;24.80;;
83022;SDS011;72838;51.820;4.260;2023-11-18T02:07:21;76.07;;;24.75;;
83022;SDS011;72838;51.820;4.260;2023-11-18T02:09:55;128.00;;;32.67;;
83022;SDS011;72838;51.820;4.260;2023-11-18T02:15:31;77.53;;;25.75;;
83022;SDS011;72838;51.820;4.260;2023-11-18T02:17:59;79.03;;;27.05;;
83022;SDS011;72838;51.820;4.260;2023-11-18T02:20:28;81.18;;;26.23;;
83022;SDS011;72838;51.820;4.260;2023-11-18T02:22:57;70.05;;;23.45;;
83022;SDS011;72838;51.820;4.260;2023-11-18T02:25:24;63.80;;;23.52;;
83022;SDS011;72838;51.820;4.260;2023-11-18T02:27:55;72.82;;;24.02;;
83022;SDS011;72838;51.820;4.260;2023-11-18T02:30:31;60.13;;;22.92;;
83022;SDS011;72838;51.820;4.260;2023-11-18T02:33:01;61.58;;;22.00;;
83022;SDS011;72838;51.820;4.260;2023-11-18T02:35:38;53.08;;;21.42;;
83022;SDS011;72838;51.820;4.260;2023-11-18T02:38:18;54.55;;;22.60;;
83022;SDS011;72838;51.820;4.260;2023-11-18T02:40:48;60.25;;;21.58;;
83022;SDS011;72838;51.820;4.260;2023-11-18T02:43:18;62.40;;;22.30;;
83022;SDS011;72838;51.820;4.260;2023-11-18T02:45:44;64.60;;;21.33;;
83022;SDS011;72838;51.820;4.260;2023-11-18T02:48:11;67.47;;;22.55;;
83022;SDS011;72838;51.820;4.260;2023-11-18T02:50:40;58.85;;;21.52;;
83022;SDS011;72838;51.820;4.260;2023-11-18T02:53:07;63.50;;;21.67;;
83022;SDS011;72838;51.820;4.260;2023-11-18T02:55:34;63.33;;;20.83;;
83022;SDS011;72838;51.820;4.260;2023-11-18T02:58:00;52.20;;;20.58;;
83022;SDS011;72838;51.820;4.260;2023-11-18T03:00:27;57.28;;;20.20;;
83022;SDS011;72838;51.820;4.260;2023-11-18T03:03:09;57.45;;;19.92;;
83022;SDS011;72838;51.820;4.260;2023-11-18T03:05:37;59.47;;;19.85;;
83022;SDS011;72838;51.820;4.260;2023-11-18T03:08:04;51.50;;;18.98;;
83022;SDS011;72838;51.820;4.260;2023-11-18T03:10:36;52.70;;;20.02;;
83022;SDS011;72838;51.820;4.260;2023-11-18T03:13:09;52.22;;;18.42;;
83022;SDS011;72838;51.820;4.260;2023-11-18T03:15:35;52.35;;;18.10;;
83022;SDS011;72838;51.820;4.260;2023-11-18T03:18:03;53.75;;;20.23;;
83022;SDS011;72838;51.820;4.260;2023-11-18T03:20:30;52.88;;;17.80;;
83022;SDS011;72838;51.820;4.260;2023-11-18T03:22:59;48.72;;;17.08;;
83022;SDS011;72838;51.820;4.260;2023-11-18T03:25:28;52.92;;;17.52;;
83022;SDS011;72838;51.820;4.260;2023-11-18T03:27:53;48.38;;;17.67;;
83022;SDS011;72838;51.820;4.260;2023-11-18T03:30:19;47.53;;;16.63;;
83022;SDS011;72838;51.820;4.260;2023-11-18T03:32:45;54.00;;;16.77;;
83022;SDS011;72838;51.820;4.260;2023-11-18T03:35:11;43.47;;;16.52;;
83022;SDS011;72838;51.820;4.260;2023-11-18T03:37:37;52.53;;;18.05;;
83022;SDS011;72838;51.820;4.260;2023-11-18T03:40:05;57.95;;;16.75;;
83022;SDS011;72838;51.820;4.260;2023-11-18T03:42:40;55.47;;;17.35;;
83022;SDS011;72838;51.820;4.260;2023-11-18T03:45:06;44.25;;;16.45;;
83022;SDS011;72838;51.820;4.260;2023-11-18T03:47:34;50.75;;;16.88;;
83022;SDS011;72838;51.820;4.260;2023-11-18T03:49:59;43.60;;;16.52;;
83022;SDS011;72838;51.820;4.260;2023-11-18T03:52:25;51.08;;;17.88;;
83022;SDS011;72838;51.820;4.260;2023-11-18T03:55:15;50.38;;;16.65;;
83022;SDS011;72838;51.820;4.260;2023-11-18T03:57:40;48.72;;;15.75;;
83022;SDS011;72838;51.820;4.260;2023-11-18T04:00:06;57.60;;;17.70;;
83022;SDS011;72838;51.820;4.260;2023-11-18T04:02:32;52.45;;;17.33;;
83022;SDS011;72838;51.820;4.260;2023-11-18T04:05:00;53.55;;;17.17;;
83022;SDS011;72838;51.820;4.260;2023-11-18T04:07:26;56.60;;;18.20;;
83022;SDS011;72838;51.820;4.260;2023-11-18T04:09:53;52.03;;;17.52;;
83022;SDS011;72838;51.820;4.260;2023-11-18T04:12:19;61.45;;;18.27;;
83022;SDS011;72838;51.820;4.260;2023-11-18T04:14:44;55.50;;;18.52;;
83022;SDS011;72838;51.820;4.260;2023-11-18T04:17:09;58.20;;;17.95;;
83022;SDS011;72838;51.820;4.260;2023-11-18T04:19:35;55.70;;;17.25;;
83022;SDS011;72838;51.820;4.260;2023-11-18T04:22:00;50.13;;;15.98;;
83022;SDS011;72838;51.820;4.260;2023-11-18T04:24:29;50.72;;;16.73;;
83022;SDS011;72838;51.820;4.260;2023-11-18T04:26:58;47.65;;;16.30;;
83022;SDS011;72838;51.820;4.260;2023-11-18T04:29:23;52.97;;;15.43;;
83022;SDS011;72838;51.820;4.260;2023-11-18T04:31:48;55.22;;;15.23;;
83022;SDS011;72838;51.820;4.260;2023-11-18T04:34:14;56.03;;;15.90;;
83022;SDS011;72838;51.820;4.260;2023-11-18T04:36:41;52.25;;;16.02;;
83022;SDS011;72838;51.820;4.260;2023-11-18T04:39:09;49.20;;;14.90;;
83022;SDS011;72838;51.820;4.260;2023-11-18T04:41:38;55.08;;;16.33;;
83022;SDS011;72838;51.820;4.260;2023-11-18T04:44:03;49.05;;;15.02;;
83022;SDS011;72838;51.820;4.260;2023-11-18T04:46:29;50.45;;;15.10;;
83022;SDS011;72838;51.820;4.260;2023-11-18T04:49:02;54.10;;;15.65;;
83022;SDS011;72838;51.820;4.260;2023-11-18T04:51:27;44.88;;;13.90;;
83022;SDS011;72838;51.820;4.260;2023-11-18T04:54:02;43.65;;;15.35;;
83022;SDS011;72838;51.820;4.260;2023-11-18T04:56:33;54.97;;;15.50;;
83022;SDS011;72838;51.820;4.260;2023-11-18T04:59:02;48.60;;;15.60;;
83022;SDS011;72838;51.820;4.260;2023-11-18T05:01:29;54.65;;;14.43;;
83022;SDS011;72838;51.820;4.260;2023-11-18T05:03:55;45.97;;;15.20;;
83022;SDS011;72838;51.820;4.260;2023-11-18T05:06:20;46.30;;;14.80;;
83022;SDS011;72838;51.820;4.260;2023-11-18T05:08:46;53.63;;;15.43;;
83022;SDS011;72838;51.820;4.260;2023-11-18T05:11:17;51.60;;;14.30;;
83022;SDS011;72838;51.820;4.260;2023-11-18T05:14:00;43.55;;;15.13;;
83022;SDS011;72838;51.820;4.260;2023-11-18T05:16:29;47.72;;;14.88;;
83022;SDS011;72838;51.820;4.260;2023-11-18T05:19:07;48.75;;;14.65;;
83022;SDS011;72838;51.820;4.260;2023-11-18T05:21:33;43.45;;;14.13;;
83022;SDS011;72838;51.820;4.260;2023-11-18T05:23:58;44.30;;;14.90;;
83022;SDS011;72838;51.820;4.260;2023-11-18T05:26:24;66.15;;;15.32;;
83022;SDS011;72838;51.820;4.260;2023-11-18T05:28:49;55.17;;;15.57;;
83022;SDS011;72838;51.820;4.260;2023-11-18T05:31:15;42.40;;;14.55;;
83022;SDS011;72838;51.820;4.260;2023-11-18T05:33:50;56.78;;;14.75;;
83022;SDS011;72838;51.820;4.260;2023-11-18T05:36:20;50.60;;;15.05;;
83022;SDS011;72838;51.820;4.260;2023-11-18T05:39:01;60.38;;;15.95;;
83022;SDS011;72838;51.820;4.260;2023-11-18T05:41:37;51.45;;;15.55;;
83022;SDS011;72838;51.820;4.260;2023-11-18T05:44:05;56.83;;;15.85;;
83022;SDS011;72838;51.820;4.260;2023-11-18T05:46:33;47.83;;;14.60;;
83022;SDS011;72838;51.820;4.260;2023-11-18T05:49:01;46.05;;;15.32;;
83022;SDS011;72838;51.820;4.260;2023-11-18T05:54:39;50.22;;;15.80;;
83022;SDS011;72838;51.820;4.260;2023-11-18T05:57:04;55.00;;;16.00;;
83022;SDS011;72838;51.820;4.260;2023-11-18T05:59:29;46.00;;;15.90;;
83022;SDS011;72838;51.820;4.260;2023-11-18T06:01:55;49.78;;;15.73;;
83022;SDS011;72838;51.820;4.260;2023-11-18T06:04:24;54.95;;;15.10;;
83022;SDS011;72838;51.820;4.260;2023-11-18T06:06:52;43.63;;;15.10;;
83022;SDS011;72838;51.820;4.260;2023-11-18T06:09:17;57.63;;;16.13;;
83022;SDS011;72838;51.820;4.260;2023-11-18T06:11:49;41.60;;;14.30;;
83022;SDS011;72838;51.820;4.260;2023-11-18T06:14:20;43.03;;;13.90;;
83022;SDS011;72838;51.820;4.260;2023-11-18T06:16:58;52.03;;;15.00;;
83022;SDS011;72838;51.820;4.260;2023-11-18T06:19:24;47.08;;;13.15;;
83022;SDS011;72838;51.820;4.260;2023-11-18T06:21:49;45.90;;;13.50;;
83022;SDS011;72838;51.820;4.260;2023-11-18T06:24:15;46.85;;;13.30;;
83022;SDS011;72838;51.820;4.260;2023-11-18T06:26:42;50.25;;;14.40;;
83022;SDS011;72838;51.820;4.260;2023-11-18T06:29:07;49.40;;;14.20;;
83022;SDS011;72838;51.820;4.260;2023-11-18T06:31:32;42.97;;;13.65;;
83022;SDS011;72838;51.820;4.260;2023-11-18T06:34:04;49.42;;;14.68;;
83022;SDS011;72838;51.820;4.260;2023-11-18T06:36:29;49.55;;;13.93;;
83022;SDS011;72838;51.820;4.260;2023-11-18T06:38:56;49.85;;;14.20;;
83022;SDS011;72838;51.820;4.260;2023-11-18T06:41:27;51.78;;;15.52;;
83022;SDS011;72838;51.820;4.260;2023-11-18T06:43:59;55.50;;;14.60;;
83022;SDS011;72838;51.820;4.260;2023-11-18T06:46:37;46.50;;;14.38;;
83022;SDS011;72838;51.820;4.260;2023-11-18T06:49:04;48.83;;;14.07;;
83022;SDS011;72838;51.820;4.260;2023-11-18T06:51:32;56.53;;;15.23;;
83022;SDS011;72838;51.820;4.260;2023-11-18T06:54:09;46.47;;;13.15;;
83022;SDS011;72838;51.820;4.260;2023-11-18T06:59:08;55.40;;;14.10;;
83022;SDS011;72838;51.820;4.260;2023-11-18T07:01:46;46.90;;;13.77;;
83022;SDS011;72838;51.820;4.260;2023-11-18T07:04:14;48.00;;;13.88;;
83022;SDS011;72838;51.820;4.260;2023-11-18T07:06:40;49.03;;;13.90;;
83022;SDS011;72838;51.820;4.260;2023-11-18T07:09:07;50.65;;;13.25;;
83022;SDS011;72838;51.820;4.260;2023-11-18T07:11:51;57.00;;;13.50;;
83022;SDS011;72838;51.820;4.260;2023-11-18T07:14:22;44.15;;;12.57;;
83022;SDS011;72838;51.820;4.260;2023-11-18T07:16:47;47.78;;;11.60;;
83022;SDS011;72838;51.820;4.260;2023-11-18T07:19:16;49.67;;;12.57;;
83022;SDS011;72838;51.820;4.260;2023-11-18T07:22:02;49.92;;;12.05;;
83022;SDS011;72838;51.820;4.260;2023-11-18T07:28:14;47.47;;;11.27;;
83022;SDS011;72838;51.820;4.260;2023-11-18T07:30:49;41.65;;;12.50;;
83022;SDS011;72838;51.820;4.260;2023-11-18T07:33:19;45.55;;;12.15;;
83022;SDS011;72838;51.820;4.260;2023-11-18T07:35:51;39.30;;;10.90;;
83022;SDS011;72838;51.820;4.260;2023-11-18T07:38:17;48.85;;;12.35;;
83022;SDS011;72838;51.820;4.260;2023-11-18T07:40:57;41.60;;;11.73;;
83022;SDS011;72838;51.820;4.260;2023-11-18T07:43:22;45.80;;;11.68;;
83022;SDS011;72838;51.820;4.260;2023-11-18T07:45:48;36.67;;;11.48;;
83022;SDS011;72838;51.820;4.260;2023-11-18T07:48:34;40.42;;;11.15;;
83022;SDS011;72838;51.820;4.260;2023-11-18T07:51:00;39.10;;;11.25;;
83022;SDS011;72838;51.820;4.260;2023-11-18T07:53:34;38.30;;;10.48;;
83022;SDS011;72838;51.820;4.260;2023-11-18T07:56:04;41.40;;;10.80;;
83022;SDS011;72838;51.820;4.260;2023-11-18T07:58:31;34.40;;;10.93;;
83022;SDS011;72838;51.820;4.260;2023-11-18T08:01:02;32.15;;;10.57;;
83022;SDS011;72838;51.820;4.260;2023-11-18T08:03:33;38.83;;;10.77;;
83022;SDS011;72838;51.820;4.260;2023-11-18T08:05:59;37.17;;;10.20;;
83022;SDS011;72838;51.820;4.260;2023-11-18T08:08:33;39.60;;;9.52;;
83022;SDS011;72838;51.820;4.260;2023-11-18T08:10:59;32.22;;;9.98;;
83022;SDS011;72838;51.820;4.260;2023-11-18T08:13:41;31.38;;;9.95;;
83022;SDS011;72838;51.820;4.260;2023-11-18T08:16:09;42.22;;;9.75;;
83022;SDS011;72838;51.820;4.260;2023-11-18T08:18:34;38.63;;;9.75;;
83022;SDS011;72838;51.820;4.260;2023-11-18T08:21:15;34.05;;;9.13;;
83022;SDS011;72838;51.820;4.260;2023-11-18T08:23:53;35.95;;;9.45;;
83022;SDS011;72838;51.820;4.260;2023-11-18T08:26:30;33.90;;;9.05;;
83022;SDS011;72838;51.820;4.260;2023-11-18T08:29:01;42.90;;;10.73;;
83022;SDS011;72838;51.820;4.260;2023-11-18T08:34:50;39.17;;;9.40;;
83022;SDS011;72838;51.820;4.260;2023-11-18T08:37:38;44.90;;;10.40;;
83022;SDS011;72838;51.820;4.260;2023-11-18T08:56:44;33.42;;;7.70;;
83022;SDS011;72838;51.820;4.260;2023-11-18T09:03:24;37.25;;;9.23;;
83022;SDS011;72838;51.820;4.260;2023-11-18T09:06:42;37.30;;;8.25;;
83022;SDS011;72838;51.820;4.260;2023-11-18T09:09:11;34.05;;;7.97;;
83022;SDS011;72838;51.820;4.260;2023-11-18T09:11:56;30.30;;;7.68;;
83022;SDS011;72838;51.820;4.260;2023-11-18T09:14:27;29.60;;;7.47;;
83022;SDS011;72838;51.820;4.260;2023-11-18T09:16:56;26.70;;;8.05;;
83022;SDS011;72838;51.820;4.260;2023-11-18T09:19:41;34.50;;;7.82;;
83022;SDS011;72838;51.820;4.260;2023-11-18T09:22:22;37.97;;;9.48;;
83022;SDS011;72838;51.820;4.260;2023-11-18T09:32:01;29.92;;;8.35;;
83022;SDS011;72838;51.820;4.260;2023-11-18T09:34:57;32.33;;;7.72;;
83022;SDS011;72838;51.820;4.260;2023-11-18T09:37:33;27.80;;;7.20;;
83022;SDS011;72838;51.820;4.260;2023-11-18T09:40:08;25.00;;;6.70;;
83022;SDS011;72838;51.820;4.260;2023-11-18T09:46:23;25.50;;;5.97;;
83022;SDS011;72838;51.820;4.260;2023-11-18T09:51:44;18.55;;;5.25;;
83022;SDS011;72838;51.820;4.260;2023-11-18T09:58:05;24.70;;;5.80;;
83022;SDS011;72838;51.820;4.260;2023-11-18T10:00:57;22.15;;;5.50;;
83022;SDS011;72838;51.820;4.260;2023-11-18T10:03:30;26.92;;;6.32;;
83022;SDS011;72838;51.820;4.260;2023-11-18T10:06:00;27.83;;;6.10;;
83022;SDS011;72838;51.820;4.260;2023-11-18T10:08:41;25.63;;;6.90;;
83022;SDS011;72838;51.820;4.260;2023-11-18T10:11:42;25.08;;;5.93;;
83022;SDS011;72838;51.820;4.260;2023-11-18T10:14:20;19.45;;;5.97;;
83022;SDS011;72838;51.820;4.260;2023-11-18T10:19:56;30.02;;;7.43;;
83022;SDS011;72838;51.820;4.260;2023-11-18T10:26:00;21.63;;;6.25;;
83022;SDS011;72838;51.820;4.260;2023-11-18T11:46:48;14.07;;;5.38;;
83022;SDS011;72838;51.820;4.260;2023-11-18T11:53:21;17.50;;;5.75;;
83022;SDS011;72838;51.820;4.260;2023-11-18T11:56:17;14.45;;;5.55;;
83022;SDS011;72838;51.820;4.260;2023-11-18T11:59:03;14.95;;;6.15;;
83022;SDS011;72838;51.820;4.260;2023-11-18T12:01:36;22.05;;;6.93;;
83022;SDS011;72838;51.820;4.260;2023-11-18T12:07:39;19.27;;;6.72;;
83022;SDS011;72838;51.820;4.260;2023-11-18T12:10:18;16.40;;;5.80;;
83022;SDS011;72838;51.820;4.260;2023-11-18T12:12:49;13.43;;;5.97;;
83022;SDS011;72838;51.820;4.260;2023-11-18T12:33:11;14.60;;;5.22;;
83022;SDS011;72838;51.820;4.260;2023-11-18T12:48:14;14.23;;;5.90;;
83022;SDS011;72838;51.820;4.260;2023-11-18T12:51:02;15.32;;;6.03;;
83022;SDS011;72838;51.820;4.260;2023-11-18T12:53:42;17.48;;;6.57;;
83022;SDS011;72838;51.820;4.260;2023-11-18T12:56:47;17.23;;;6.22;;
83022;SDS011;72838;51.820;4.260;2023-11-18T12:59:31;12.73;;;5.50;;
83022;SDS011;72838;51.820;4.260;2023-11-18T13:02:08;16.95;;;5.50;;
83022;SDS011;72838;51.820;4.260;2023-11-18T13:05:16;14.18;;;5.15;;
83022;SDS011;72838;51.820;4.260;2023-11-18T13:07:49;14.98;;;5.75;;
83022;SDS011;72838;51.820;4.260;2023-11-18T13:11:01;26.23;;;8.65;;
83022;SDS011;72838;51.820;4.260;2023-11-18T13:13:41;18.73;;;7.38;;
83022;SDS011;72838;51.820;4.260;2023-11-18T13:16:17;16.38;;;7.50;;
83022;SDS011;72838;51.820;4.260;2023-11-18T13:18:58;16.60;;;7.80;;
83022;SDS011;72838;51.820;4.260;2023-11-18T13:21:23;20.33;;;7.20;;
83022;SDS011;72838;51.820;4.260;2023-11-18T13:23:52;23.77;;;9.30;;
83022;SDS011;72838;51.820;4.260;2023-11-18T13:26:24;19.55;;;8.13;;
83022;SDS011;72838;51.820;4.260;2023-11-18T13:28:52;27.98;;;10.93;;
83022;SDS011;72838;51.820;4.260;2023-11-18T13:43:41;26.92;;;10.07;;
83022;SDS011;72838;51.820;4.260;2023-11-18T13:46:11;28.27;;;8.80;;
83022;SDS011;72838;51.820;4.260;2023-11-18T13:48:46;23.52;;;8.00;;
83022;SDS011;72838;51.820;4.260;2023-11-18T13:51:14;21.05;;;8.00;;
83022;SDS011;72838;51.820;4.260;2023-11-18T13:57:02;19.65;;;7.53;;
83022;SDS011;72838;51.820;4.260;2023-11-18T13:59:31;14.15;;;5.43;;
83022;SDS011;72838;51.820;4.260;2023-11-18T14:01:58;12.30;;;4.47;;
83022;SDS011;72838;51.820;4.260;2023-11-18T14:04:33;14.00;;;5.20;;
83022;SDS011;72838;51.820;4.260;2023-11-18T14:07:04;8.90;;;4.20;;
83022;SDS011;72838;51.820;4.260;2023-11-18T14:09:34;6.22;;;3.38;;
83022;SDS011;72838;51.820;4.260;2023-11-18T14:12:09;7.07;;;3.50;;
83022;SDS011;72838;51.820;4.260;2023-11-18T14:14:51;7.82;;;4.15;;
83022;SDS011;72838;51.820;4.260;2023-11-18T14:20:17;5.53;;;2.80;;
83022;SDS011;72838;51.820;4.260;2023-11-18T14:22:51;5.88;;;2.60;;
83022;SDS011;72838;51.820;4.260;2023-11-18T14:27:55;6.65;;;2.90;;
83022;SDS011;72838;51.820;4.260;2023-11-18T14:39:33;6.30;;;2.83;;
83022;SDS011;72838;51.820;4.260;2023-11-18T14:42:02;6.93;;;2.70;;
83022;SDS011;72838;51.820;4.260;2023-11-18T14:44:43;6.03;;;3.40;;
83022;SDS011;72838;51.820;4.260;2023-11-18T14:47:11;7.43;;;2.28;;
83022;SDS011;72838;51.820;4.260;2023-11-18T14:49:42;8.60;;;3.75;;
83022;SDS011;72838;51.820;4.260;2023-11-18T14:52:11;6.90;;;3.28;;
83022;SDS011;72838;51.820;4.260;2023-11-18T14:54:36;6.55;;;3.00;;
83022;SDS011;72838;51.820;4.260;2023-11-18T14:57:04;11.93;;;7.18;;
83022;SDS011;72838;51.820;4.260;2023-11-18T14:59:30;9.82;;;4.88;;
83022;SDS011;72838;51.820;4.260;2023-11-18T15:02:02;9.20;;;5.07;;
83022;SDS011;72838;51.820;4.260;2023-11-18T15:04:33;9.80;;;6.15;;
83022;SDS011;72838;51.820;4.260;2023-11-18T15:06:58;17.15;;;10.77;;
83022;SDS011;72838;51.820;4.260;2023-11-18T15:09:24;9.18;;;3.80;;
83022;SDS011;72838;51.820;4.260;2023-11-18T15:11:49;9.07;;;3.78;;
83022;SDS011;72838;51.820;4.260;2023-11-18T15:14:27;7.72;;;3.50;;
83022;SDS011;72838;51.820;4.260;2023-11-18T15:16:53;6.70;;;2.90;;
83022;SDS011;72838;51.820;4.260;2023-11-18T15:19:33;8.40;;;3.88;;
83022;SDS011;72838;51.820;4.260;2023-11-18T15:21:58;9.10;;;3.97;;
83022;SDS011;72838;51.820;4.260;2023-11-18T15:24:24;11.10;;;4.05;;
83022;SDS011;72838;51.820;4.260;2023-11-18T15:26:49;10.77;;;4.70;;
83022;SDS011;72838;51.820;4.260;2023-11-18T15:29:16;9.60;;;4.88;;
83022;SDS011;72838;51.820;4.260;2023-11-18T15:31:41;10.40;;;5.07;;
83022;SDS011;72838;51.820;4.260;2023-11-18T15:34:07;11.05;;;5.28;;
83022;SDS011;72838;51.820;4.260;2023-11-18T15:39:19;15.48;;;7.05;;
83022;SDS011;72838;51.820;4.260;2023-11-18T15:41:57;17.42;;;7.53;;
83022;SDS011;72838;51.820;4.260;2023-11-18T15:44:25;17.98;;;7.43;;
83022;SDS011;72838;51.820;4.260;2023-11-18T15:46:53;19.70;;;8.32;;
83022;SDS011;72838;51.820;4.260;2023-11-18T15:49:19;20.30;;;8.20;;
83022;SDS011;72838;51.820;4.260;2023-11-18T15:51:45;22.88;;;9.25;;
83022;SDS011;72838;51.820;4.260;2023-11-18T15:54:20;23.85;;;8.68;;
83022;SDS011;72838;51.820;4.260;2023-11-18T15:56:45;25.77;;;9.85;;
83022;SDS011;72838;51.820;4.260;2023-11-18T15:59:14;25.95;;;9.43;;
83022;SDS011;72838;51.820;4.260;2023-11-18T16:01:39;30.20;;;10.90;;
83022;SDS011;72838;51.820;4.260;2023-11-18T16:04:05;31.35;;;11.45;;
83022;SDS011;72838;51.820;4.260;2023-11-18T16:06:31;40.17;;;14.43;;
83022;SDS011;72838;51.820;4.260;2023-11-18T16:09:02;42.20;;;14.45;;
83022;SDS011;72838;51.820;4.260;2023-11-18T16:11:29;44.10;;;15.52;;
83022;SDS011;72838;51.820;4.260;2023-11-18T16:13:57;48.55;;;14.80;;
83022;SDS011;72838;51.820;4.260;2023-11-18T16:16:30;48.17;;;14.75;;
83022;SDS011;72838;51.820;4.260;2023-11-18T16:18:55;46.55;;;15.23;;
83022;SDS011;72838;51.820;4.260;2023-11-18T16:21:21;49.55;;;16.15;;
83022;SDS011;72838;51.820;4.260;2023-11-18T16:23:47;48.17;;;15.10;;
83022;SDS011;72838;51.820;4.260;2023-11-18T16:26:12;46.17;;;13.88;;
83022;SDS011;72838;51.820;4.260;2023-11-18T16:28:38;40.75;;;14.60;;
83022;SDS011;72838;51.820;4.260;2023-11-18T16:31:23;33.83;;;12.15;;
83022;SDS011;72838;51.820;4.260;2023-11-18T16:36:50;36.45;;;13.43;;
83022;SDS011;72838;51.820;4.260;2023-11-18T16:39:17;43.67;;;13.65;;
83022;SDS011;72838;51.820;4.260;2023-11-18T16:41:51;42.65;;;14.95;;
83022;SDS011;72838;51.820;4.260;2023-11-18T16:44:17;43.40;;;13.68;;
83022;SDS011;72838;51.820;4.260;2023-11-18T16:46:42;45.35;;;14.45;;
83022;SDS011;72838;51.820;4.260;2023-11-18T16:49:12;36.08;;;12.80;;
83022;SDS011;72838;51.820;4.260;2023-11-18T16:51:47;42.53;;;14.20;;
83022;SDS011;72838;51.820;4.260;2023-11-18T16:54:17;45.10;;;14.38;;
83022;SDS011;72838;51.820;4.260;2023-11-18T16:56:44;43.60;;;14.07;;
83022;SDS011;72838;51.820;4.260;2023-11-18T16:59:09;44.25;;;15.38;;
83022;SDS011;72838;51.820;4.260;2023-11-18T17:01:41;42.38;;;15.73;;
83022;SDS011;72838;51.820;4.260;2023-11-18T17:04:09;44.97;;;15.80;;
83022;SDS011;72838;51.820;4.260;2023-11-18T17:06:43;43.65;;;15.15;;
83022;SDS011;72838;51.820;4.260;2023-11-18T17:09:25;42.67;;;15.82;;
83022;SDS011;72838;51.820;4.260;2023-11-18T17:11:53;43.60;;;13.55;;
83022;SDS011;72838;51.820;4.260;2023-11-18T17:14:21;54.55;;;18.15;;
83022;SDS011;72838;51.820;4.260;2023-11-18T17:16:59;48.80;;;16.98;;
83022;SDS011;72838;51.820;4.260;2023-11-18T17:19:38;56.53;;;17.27;;
83022;SDS011;72838;51.820;4.260;2023-11-18T17:22:06;52.60;;;16.63;;
83022;SDS011;72838;51.820;4.260;2023-11-18T17:24:31;47.47;;;16.27;;
83022;SDS011;72838;51.820;4.260;2023-11-18T17:26:57;43.30;;;14.68;;
83022;SDS011;72838;51.820;4.260;2023-11-18T17:29:24;42.05;;;15.20;;
83022;SDS011;72838;51.820;4.260;2023-11-18T17:31:50;40.10;;;13.85;;
83022;SDS011;72838;51.820;4.260;2023-11-18T17:37:54;48.63;;;16.45;;
83022;SDS011;72838;51.820;4.260;2023-11-18T17:40:23;47.75;;;15.48;;
83022;SDS011;72838;51.820;4.260;2023-11-18T17:42:48;45.92;;;14.65;;
83022;SDS011;72838;51.820;4.260;2023-11-18T17:45:24;56.25;;;16.63;;
83022;SDS011;72838;51.820;4.260;2023-11-18T17:47:49;52.67;;;16.92;;
83022;SDS011;72838;51.820;4.260;2023-11-18T17:50:21;57.05;;;17.42;;
83022;SDS011;72838;51.820;4.260;2023-11-18T17:52:47;51.30;;;17.02;;
83022;SDS011;72838;51.820;4.260;2023-11-18T17:55:26;52.97;;;16.45;;
83022;SDS011;72838;51.820;4.260;2023-11-18T17:57:55;59.92;;;18.58;;
83022;SDS011;72838;51.820;4.260;2023-11-18T18:00:36;61.28;;;18.35;;
83022;SDS011;72838;51.820;4.260;2023-11-18T18:03:01;57.45;;;18.40;;
83022;SDS011;72838;51.820;4.260;2023-11-18T18:05:28;68.07;;;20.00;;
83022;SDS011;72838;51.820;4.260;2023-11-18T18:07:53;58.10;;;18.15;;
83022;SDS011;72838;51.820;4.260;2023-11-18T18:10:19;66.70;;;20.05;;
83022;SDS011;72838;51.820;4.260;2023-11-18T18:13:06;62.97;;;18.13;;
83022;SDS011;72838;51.820;4.260;2023-11-18T18:15:32;78.22;;;22.08;;
83022;SDS011;72838;51.820;4.260;2023-11-18T18:18:00;88.50;;;24.42;;
83022;SDS011;72838;51.820;4.260;2023-11-18T18:20:27;88.25;;;23.25;;
83022;SDS011;72838;51.820;4.260;2023-11-18T18:22:55;88.38;;;24.08;;
83022;SDS011;72838;51.820;4.260;2023-11-18T18:25:33;88.97;;;24.83;;